Time;durP1;ratioP1;P1;durP2;ratioP2;P2;SDS_P1;SDS_P2;PMS_P1;PMS_P2;Temp;Humidity;BMP_temperature;BMP_pressure;BME280_temperature;BME280_humidity;BME280_pressure;Samples;Min_cycle;Max_cycle;Signal;HPM_P1;HPM_P2
2024/04/04 00:01:35;;;;;;;;;;;;;;;-144.99;100.00;52494.97;4970109;28;19926;-69
2024/04/04 00:04:02;;;;;;;;;;;;;;;-144.99;100.00;52550.00;4969995;28;19984;-67
2024/04/04 00:06:27;;;;;;;;;;;;;;;-144.99;100.00;52558.16;4969139;28;19982;-67
2024/04/04 00:08:53;;;;;;;;;;;;;;;-144.99;100.00;52554.09;4971201;28;20031;-67
2024/04/04 00:11:21;;;;;;;;;;;;;;;-144.99;100.00;52521.47;4970899;28;20352;-67
2024/04/04 00:13:48;;;;;;;;;;;;;;;-144.99;100.00;52501.09;4967231;28;20332;-67
2024/04/04 00:16:13;;;;;;;;;;;;;;;-144.99;100.00;52501.09;4975784;28;19941;-63
2024/04/04 00:18:42;;;;;;;;;;;;;;;-144.99;100.00;52523.50;4969684;28;19976;-65
2024/04/04 00:21:07;;;;;;;;;;;;;;;-144.99;100.00;52513.31;4970167;28;19969;-64
2024/04/04 00:23:34;;;;;;;;;;;;;;;-144.99;100.00;52509.25;4970159;28;20383;-65
2024/04/04 00:25:59;;;;;;;;;;;;;;;-144.99;100.00;52519.44;4975080;28;19973;-65
2024/04/04 00:28:27;;;;;;;;;;;;;;;-144.99;100.00;52511.28;4971391;28;19977;-63
2024/04/04 00:30:53;;;;;;;;;;;;;;;-144.99;100.00;52550.00;4968711;28;19930;-68
2024/04/04 00:33:19;;;;;;;;;;;;;;;-144.99;100.00;52541.84;4971224;28;20037;-68
2024/04/04 00:35:45;;;;;;;;;;;;;;;-144.99;100.00;52517.41;4962669;28;20439;-67
2024/04/04 00:38:11;;;;;;;;;;;;;;;-144.99;100.00;52513.31;4979151;28;20190;-66
2024/04/04 00:40:37;;;;;;;;;;;;;;;-144.99;100.00;52521.47;4971849;28;19926;-68
2024/04/04 00:43:04;;;;;;;;;;;;;;;-144.99;100.00;52537.78;4965300;28;20033;-67
2024/04/04 00:45:31;;;;;;;;;;;;;;;-144.99;100.00;52501.09;4967856;28;19969;-67
2024/04/04 00:47:58;;;;;;;;;;;;;;;-144.99;100.00;52497.00;4973922;28;19981;-67
2024/04/04 00:50:24;;;;;;;;;;;;;;;-144.99;100.00;52513.31;4970345;28;20469;-67
2024/04/04 00:52:51;;;;;;;;;;;;;;;-144.99;100.00;52513.31;4971547;28;20152;-67
2024/04/04 00:55:16;;;;;;;;;;;;;;;-144.99;100.00;52476.63;4960755;28;19930;-67
2024/04/04 00:57:44;;;;;;;;;;;;;;;-144.99;100.00;52513.31;4967081;28;19985;-67
2024/04/04 01:00:10;;;;;;;;;;;;;;;-144.99;100.00;52541.84;4971318;28;19957;-67
2024/04/04 01:02:38;;;;;;;;;;;;;;;-144.99;100.00;52488.84;4968896;28;19926;-67
2024/04/04 01:05:04;;;;;;;;;;;;;;;-144.99;100.00;52486.81;4968198;28;20024;-66
2024/04/04 01:07:30;;;;;;;;;;;;;;;-144.99;100.00;52507.19;4966459;28;20017;-65
2024/04/04 01:09:56;;;;;;;;;;;;;;;-144.99;100.00;52541.84;4965646;28;19926;-66
2024/04/04 01:12:22;;;;;;;;;;;;;;;-144.99;100.00;52529.63;4978179;28;20036;-65
2024/04/04 01:14:47;;;;;;;;;;;;;;;-144.99;100.00;52525.56;4960037;28;20317;-61
2024/04/04 01:17:14;;;;;;;;;;;;;;;-144.99;100.00;52484.78;4970199;28;20025;-61
2024/04/04 01:19:41;;;;;;;;;;;;;;;-144.99;100.00;52509.25;4968969;28;20073;-62
2024/04/04 01:22:07;;;;;;;;;;;;;;;-144.99;100.00;52527.59;4968205;28;20367;-60
2024/04/04 01:24:34;;;;;;;;;;;;;;;-144.99;100.00;52521.47;4970263;28;19977;-61
2024/04/04 01:27:01;;;;;;;;;;;;;;;-144.99;100.00;52554.09;4969592;28;19926;-60
2024/04/04 01:29:26;;;;;;;;;;;;;;;-144.99;100.00;52517.41;4969499;28;19930;-61
2024/04/04 01:31:52;;;;;;;;;;;;;;;-144.99;100.00;52533.69;4967546;28;20408;-61
2024/04/04 01:34:18;;;;;;;;;;;;;;;-144.99;100.00;52531.66;4968905;28;19930;-62
2024/04/04 01:36:45;;;;;;;;;;;;;;;-144.99;100.00;52521.47;4969580;28;19985;-61
2024/04/04 01:39:10;;;;;;;;;;;;;;;-144.99;100.00;52541.84;4965491;28;20012;-62
2024/04/04 01:41:39;;;;;;;;;;;;;;;-144.99;100.00;52568.34;4965839;28;20006;-62
2024/04/04 01:44:06;;;;;;;;;;;;;;;-144.99;100.00;52513.31;4969163;28;19930;-67
2024/04/04 01:46:32;;;;;;;;;;;;;;;-144.99;100.00;52501.09;4969966;28;19930;-63
2024/04/04 01:48:58;;;;;;;;;;;;;;;-144.99;100.00;52525.56;4968325;28;19965;-66
2024/04/04 01:51:24;;;;;;;;;;;;;;;-144.99;100.00;52513.31;4971107;28;20087;-65
2024/04/04 01:53:50;;;;;;;;;;;;;;;-144.99;100.00;52529.63;4962077;28;19933;-63
2024/04/04 01:56:16;;;;;;;;;;;;;;;-144.99;100.00;52509.25;4975992;28;20363;-64
2024/04/04 01:58:43;;;;;;;;;;;;;;;-144.99;100.00;52464.41;4970671;28;19961;-63
2024/04/04 02:01:09;;;;;;;;;;;;;;;-144.99;100.00;52513.31;4962850;28;19933;-62
2024/04/04 02:03:35;;;;;;;;;;;;;;;-144.99;100.00;52517.41;4967825;28;20152;-63
2024/04/04 02:06:01;;;;;;;;;;;;;;;-144.99;100.00;52533.69;4973467;28;20041;-65
2024/04/04 02:08:27;;;;;;;;;;;;;;;-144.99;100.00;52501.09;4967837;28;19991;-65
2024/04/04 02:10:53;;;;;;;;;;;;;;;-144.99;100.00;52525.56;4969091;28;19930;-74
2024/04/04 02:13:20;;;;;;;;;;;;;;;-144.99;100.00;52513.31;4966884;28;19930;-72
2024/04/04 02:15:47;;;;;;;;;;;;;;;-144.99;100.00;52578.53;4965202;28;19927;-72
2024/04/04 02:18:15;;;;;;;;;;;;;;;-144.99;100.00;52511.28;4964440;28;19961;-72
2024/04/04 02:20:41;;;;;;;;;;;;;;;-144.99;100.00;52566.31;4968197;28;20017;-71
2024/04/04 02:23:08;;;;;;;;;;;;;;;-144.99;100.00;52558.16;4965141;28;19938;-72
2024/04/04 02:25:34;;;;;;;;;;;;;;;-144.99;100.00;52523.50;4960895;28;19977;-71
2024/04/04 02:28:00;;;;;;;;;;;;;;;-144.99;100.00;52531.66;4967624;28;20832;-71
2024/04/04 02:30:26;;;;;;;;;;;;;;;-144.99;100.00;52541.84;4966374;28;20013;-71
2024/04/04 02:32:53;;;;;;;;;;;;;;;-144.99;100.00;52527.59;4967306;28;20348;-70
2024/04/04 02:35:19;;;;;;;;;;;;;;;-144.99;100.00;52554.09;4966777;28;19926;-66
2024/04/04 02:37:45;;;;;;;;;;;;;;;-144.99;100.00;52505.16;4968510;28;19926;-67
2024/04/04 02:40:12;;;;;;;;;;;;;;;-144.99;100.00;52541.84;4965606;28;20332;-67
2024/04/04 02:42:38;;;;;;;;;;;;;;;-144.99;100.00;52521.47;4967948;28;19930;-67
2024/04/04 02:45:05;;;;;;;;;;;;;;;-144.99;100.00;52529.63;4967423;28;19927;-67
2024/04/04 02:47:30;;;;;;;;;;;;;;;-144.99;100.00;52545.94;4967089;28;21145;-65
2024/04/04 02:49:58;;;;;;;;;;;;;;;-144.99;100.00;52521.47;4965392;28;19973;-65
2024/04/04 02:52:24;;;;;;;;;;;;;;;-144.99;100.00;52545.94;4967474;28;19946;-65
2024/04/04 02:54:50;;;;;;;;;;;;;;;-144.99;100.00;52533.69;4964877;28;19926;-65
2024/04/04 02:57:16;;;;;;;;;;;;;;;-144.99;100.00;52519.44;4968445;28;20030;-64
2024/04/04 02:59:42;;;;;;;;;;;;;;;-144.99;100.00;52509.25;4968531;28;20029;-68
2024/04/04 03:02:08;;;;;;;;;;;;;;;-144.99;100.00;52578.53;4968923;28;20033;-68
2024/04/04 03:04:36;;;;;;;;;;;;;;;-144.99;100.00;52570.38;4961869;28;20020;-68
2024/04/04 03:07:03;;;;;;;;;;;;;;;-144.99;100.00;52513.31;4967304;28;19930;-68
2024/04/04 03:09:30;;;;;;;;;;;;;;;-144.99;100.00;52505.16;4966909;28;19929;-68
2024/04/04 03:11:55;;;;;;;;;;;;;;;-144.99;100.00;52492.94;4967687;28;19993;-67
2024/04/04 03:14:21;;;;;;;;;;;;;;;-144.99;100.00;52513.31;4968579;28;19930;-68
2024/04/04 03:16:47;;;;;;;;;;;;;;;-144.99;100.00;52521.47;4966460;28;19945;-68
2024/04/04 03:19:13;;;;;;;;;;;;;;;-144.99;100.00;52525.56;4968647;28;19937;-67
2024/04/04 03:21:39;;;;;;;;;;;;;;;-144.99;100.00;52533.69;4968003;28;20431;-68
2024/04/04 03:24:07;;;;;;;;;;;;;;;-144.99;100.00;52545.94;4966377;28;20018;-67
2024/04/04 03:26:33;;;;;;;;;;;;;;;-144.99;100.00;52541.84;4962667;28;19976;-67
2024/04/04 03:29:01;;;;;;;;;;;;;;;-144.99;100.00;52550.00;4967688;28;20321;-67
2024/04/04 03:31:27;;;;;;;;;;;;;;;-144.99;100.00;52560.19;4966272;28;19984;-67
2024/04/04 03:33:53;;;;;;;;;;;;;;;-144.99;100.00;52556.13;4967537;28;19938;-67
2024/04/04 03:36:19;;;;;;;;;;;;;;;-144.99;100.00;52533.69;4961912;28;20293;-67
2024/04/04 03:38:45;;;;;;;;;;;;;;;-144.99;100.00;52521.47;4961637;28;20093;-67
2024/04/04 03:41:13;;;;;;;;;;;;;;;-144.99;100.00;52558.16;4965262;28;19965;-67
2024/04/04 03:43:40;;;;;;;;;;;;;;;-144.99;100.00;52541.84;4962388;28;20005;-67
2024/04/04 03:46:06;;;;;;;;;;;;;;;-144.99;100.00;52525.56;4966743;28;20047;-66
2024/04/04 03:48:33;;;;;;;;;;;;;;;-144.99;100.00;52511.28;4961453;28;19941;-67
2024/04/04 03:51:00;;;;;;;;;;;;;;;-144.99;100.00;52562.25;4968705;28;20373;-67
2024/04/04 03:53:25;;;;;;;;;;;;;;;-144.99;100.00;52533.69;4967965;28;20416;-67
2024/04/04 03:55:52;;;;;;;;;;;;;;;-144.99;100.00;52558.16;4971654;28;19988;-67
2024/04/04 03:58:19;;;;;;;;;;;;;;;-144.99;100.00;52574.47;4975558;28;19957;-68
2024/04/04 04:00:45;;;;;;;;;;;;;;;-144.99;100.00;52519.44;4965555;28;20044;-66
2024/04/04 04:03:11;;;;;;;;;;;;;;;-144.99;100.00;52509.25;4966485;28;19971;-66
2024/04/04 04:05:38;;;;;;;;;;;;;;;-144.99;100.00;52468.47;4969210;28;20337;-66
2024/04/04 04:08:03;;;;;;;;;;;;;;;-144.99;100.00;52519.44;4969182;28;20347;-68
2024/04/04 04:10:31;;;;;;;;;;;;;;;-144.99;100.00;52578.53;4974032;28;20006;-65
2024/04/04 04:12:56;;;;;;;;;;;;;;;-144.99;100.00;52539.81;4971463;28;19930;-65
2024/04/04 04:15:25;;;;;;;;;;;;;;;-144.99;100.00;52529.63;4970423;28;19926;-68
2024/04/04 04:17:51;;;;;;;;;;;;;;;-144.99;100.00;52554.09;4964989;28;19933;-67
2024/04/04 04:22:45;;;;;;;;;;;;;;;-144.99;100.00;52527.59;4963769;28;21308;-62
2024/04/04 04:25:12;;;;;;;;;;;;;;;-144.99;100.00;52562.25;4958530;28;19973;-61
2024/04/04 04:27:37;;;;;;;;;;;;;;;-144.99;100.00;52541.84;4959918;28;19927;-61
2024/04/04 04:30:05;;;;;;;;;;;;;;;-144.99;100.00;52529.63;4962416;28;20388;-62
2024/04/04 04:32:32;;;;;;;;;;;;;;;-144.99;100.00;52515.34;4949650;29;19931;-62
2024/04/04 04:34:58;;;;;;;;;;;;;;;-144.99;100.00;52562.25;4942232;29;20014;-62
2024/04/04 04:37:24;;;;;;;;;;;;;;;-144.99;100.00;52578.53;4944981;29;20400;-62
2024/04/04 04:39:50;;;;;;;;;;;;;;;-144.99;100.00;52537.78;4943431;29;20013;-63
2024/04/04 04:42:16;;;;;;;;;;;;;;;-144.99;100.00;52550.00;4944117;29;20017;-63
2024/04/04 04:44:42;;;;;;;;;;;;;;;-144.99;100.00;52578.53;4949837;29;20026;-63
2024/04/04 04:47:08;;;;;;;;;;;;;;;-144.99;100.00;52533.69;4945739;29;19935;-62
2024/04/04 04:49:36;;;;;;;;;;;;;;;-144.99;100.00;52558.16;4938168;29;20356;-62
2024/04/04 04:52:02;;;;;;;;;;;;;;;-144.99;100.00;52513.31;4939108;29;19926;-62
2024/04/04 04:54:28;;;;;;;;;;;;;;;-144.99;100.00;52558.16;4937053;29;20070;-61
2024/04/04 04:56:53;;;;;;;;;;;;;;;-144.99;100.00;52501.09;4935381;29;19962;-62
2024/04/04 04:59:20;;;;;;;;;;;;;;;-144.99;100.00;52521.47;4940188;29;19974;-64
2024/04/04 05:01:46;;;;;;;;;;;;;;;-144.99;100.00;52582.63;4942314;28;19934;-65
2024/04/04 05:04:12;;;;;;;;;;;;;;;-144.99;100.00;52529.63;4943893;29;20041;-64
2024/04/04 05:06:39;;;;;;;;;;;;;;;-144.99;100.00;52545.94;4939204;29;20015;-64
2024/04/04 05:09:05;;;;;;;;;;;;;;;-144.99;100.00;52594.84;4944634;29;19927;-63
2024/04/04 05:11:31;;;;;;;;;;;;;;;-144.99;100.00;52541.84;4936283;29;19926;-63
2024/04/04 05:13:57;;;;;;;;;;;;;;;-144.99;100.00;52533.69;4940435;29;20025;-63
2024/04/04 05:16:23;;;;;;;;;;;;;;;-144.99;100.00;52560.19;4951267;29;19950;-63
2024/04/04 05:18:49;;;;;;;;;;;;;;;-144.99;100.00;52584.66;4946478;29;19935;-62
2024/04/04 05:21:15;;;;;;;;;;;;;;;-144.99;100.00;52533.69;4947085;28;20065;-62
2024/04/04 05:23:43;;;;;;;;;;;;;;;-144.99;100.00;52497.00;4944061;29;20486;-62
2024/04/04 05:26:08;;;;;;;;;;;;;;;-144.99;100.00;52545.94;4947134;29;19962;-65
2024/04/04 05:28:36;;;;;;;;;;;;;;;-144.99;100.00;52547.97;4950475;29;20009;-64
2024/04/04 05:31:01;;;;;;;;;;;;;;;-144.99;100.00;52545.94;4950788;29;19933;-64
2024/04/04 05:33:28;;;;;;;;;;;;;;;-144.99;100.00;52570.38;4944524;29;19926;-65
2024/04/04 05:35:53;;;;;;;;;;;;;;;-144.99;100.00;52578.53;4941498;29;19981;-64
2024/04/04 05:38:20;;;;;;;;;;;;;;;-144.99;100.00;52562.25;4949593;29;19930;-64
2024/04/04 05:40:47;;;;;;;;;;;;;;;-144.99;100.00;52529.63;4936522;29;20024;-63
2024/04/04 05:43:13;;;;;;;;;;;;;;;-144.99;100.00;52562.25;4929521;29;20032;-62
2024/04/04 05:45:39;;;;;;;;;;;;;;;-144.99;100.00;52533.69;4949011;29;19978;-61
2024/04/04 05:48:06;;;;;;;;;;;;;;;-144.99;100.00;52537.78;4946327;29;20293;-62
2024/04/04 05:50:34;;;;;;;;;;;;;;;-144.99;100.00;52529.63;4926266;29;19926;-62
2024/04/04 05:53:00;;;;;;;;;;;;;;;-144.99;100.00;52543.91;4942201;29;19938;-62
2024/04/04 05:55:26;;;;;;;;;;;;;;;-144.99;100.00;52558.16;4942392;29;19930;-60
2024/04/04 05:57:54;;;;;;;;;;;;;;;-144.99;100.00;52521.47;4942735;29;20452;-61
2024/04/04 06:00:19;;;;;;;;;;;;;;;-144.99;100.00;52570.38;4939908;29;19934;-61
2024/04/04 06:02:46;;;;;;;;;;;;;;;-144.99;100.00;52537.78;4944062;29;19982;-62
2024/04/04 06:05:11;;;;;;;;;;;;;;;-144.99;100.00;52523.50;4937440;29;19933;-63
2024/04/04 06:07:38;;;;;;;;;;;;;;;-144.99;100.00;52550.00;4941160;29;19927;-62
2024/04/04 06:10:04;;;;;;;;;;;;;;;-144.99;100.00;52545.94;4948138;29;19927;-61
2024/04/04 06:12:30;;;;;;;;;;;;;;;-144.99;100.00;52517.41;4927477;29;19977;-65
2024/04/04 06:14:57;;;;;;;;;;;;;;;-144.99;100.00;52521.47;4935670;29;19933;-66
2024/04/04 06:17:24;;;;;;;;;;;;;;;-144.99;100.00;52552.03;4943474;29;20415;-66
2024/04/04 06:19:50;;;;;;;;;;;;;;;-144.99;100.00;52570.38;4933183;29;19931;-67
2024/04/04 06:22:17;;;;;;;;;;;;;;;-144.99;100.00;52547.97;4938005;29;19936;-66
2024/04/04 06:24:43;;;;;;;;;;;;;;;-144.99;100.00;52533.69;4941050;29;19931;-67
2024/04/04 06:27:10;;;;;;;;;;;;;;;-144.99;100.00;52566.31;4941795;29;19933;-67
2024/04/04 06:29:35;;;;;;;;;;;;;;;-144.99;100.00;52552.03;4944637;29;19977;-67
2024/04/04 06:32:05;;;;;;;;;;;;;;;-144.99;100.00;52533.69;4946636;29;19976;-68
2024/04/04 06:34:31;;;;;;;;;;;;;;;-144.99;100.00;52527.59;4941028;29;20309;-67
2024/04/04 06:36:58;;;;;;;;;;;;;;;-144.99;100.00;52545.94;4950934;29;19961;-60
2024/04/04 06:39:23;;;;;;;;;;;;;;;-144.99;100.00;52501.09;4947368;29;19926;-62
2024/04/04 06:41:49;;;;;;;;;;;;;;;-144.99;100.00;52529.63;4931931;29;20092;-62
2024/04/04 06:44:15;;;;;;;;;;;;;;;-144.99;100.00;52541.84;4938870;29;19934;-62
2024/04/04 06:46:41;;;;;;;;;;;;;;;-144.99;100.00;52550.00;4939206;29;19978;-62
2024/04/04 06:49:09;;;;;;;;;;;;;;;-144.99;100.00;52523.50;4943976;29;20384;-63
2024/04/04 06:51:36;;;;;;;;;;;;;;;-144.99;100.00;52529.63;4941867;28;20017;-62
2024/04/04 06:54:02;;;;;;;;;;;;;;;-144.99;100.00;52529.63;4935298;29;20010;-61
2024/04/04 06:56:28;;;;;;;;;;;;;;;-144.99;100.00;52562.25;4939216;29;19933;-61
2024/04/04 06:58:54;;;;;;;;;;;;;;;-144.99;100.00;52533.69;4944442;29;20316;-62
2024/04/04 07:01:20;;;;;;;;;;;;;;;-144.99;100.00;52564.28;4942571;29;19930;-65
2024/04/04 07:03:46;;;;;;;;;;;;;;;-144.99;100.00;52521.47;4944209;29;19934;-71
2024/04/04 07:06:14;;;;;;;;;;;;;;;-144.99;100.00;52541.84;4946080;29;20385;-71
2024/04/04 07:08:40;;;;;;;;;;;;;;;-144.99;100.00;52566.31;4938584;29;20353;-71
2024/04/04 07:11:09;;;;;;;;;;;;;;;-144.99;100.00;52537.78;4946440;29;19980;-71
2024/04/04 07:13:36;;;;;;;;;;;;;;;-144.99;100.00;52537.78;4941211;29;20304;-69
2024/04/04 07:16:04;;;;;;;;;;;;;;;-144.99;100.00;52529.63;4946542;29;20396;-69
2024/04/04 07:18:31;;;;;;;;;;;;;;;-144.99;100.00;52525.56;4946362;29;19932;-69
2024/04/04 07:20:57;;;;;;;;;;;;;;;-144.99;97.76;52513.31;4944025;29;20009;-69
2024/04/04 07:23:24;;;;;;;;;;;;;;;-144.99;97.10;52539.81;4941570;29;19931;-70
2024/04/04 07:25:51;;;;;;;;;;;;;;;-144.99;96.81;52501.09;4942866;29;19927;-70
2024/04/04 07:28:17;;;;;;;;;;;;;;;-144.99;96.29;52513.31;4944215;29;19926;-71
2024/04/04 07:30:43;;;;;;;;;;;;;;;-144.99;96.30;52509.25;4944408;29;20475;-70
2024/04/04 07:33:09;;;;;;;;;;;;;;;-144.99;96.38;52488.84;4941172;29;19982;-70
2024/04/04 07:35:35;;;;;;;;;;;;;;;-144.99;96.90;52517.41;4938839;29;19930;-71
2024/04/04 07:38:02;;;;;;;;;;;;;;;-144.99;94.92;52537.78;4938897;29;20290;-66
2024/04/04 07:40:30;;;;;;;;;;;;;;;-144.99;95.48;52505.16;4941389;29;20025;-66
2024/04/04 07:42:56;;;;;;;;;;;;;;;-144.99;95.81;52541.84;4924280;29;19966;-66
2024/04/04 07:45:22;;;;;;;;;;;;;;;-144.99;95.72;52505.16;4940591;29;19974;-66
2024/04/04 07:47:48;;;;;;;;;;;;;;;-144.99;96.37;52566.31;4939929;29;20329;-66
2024/04/04 07:50:16;;;;;;;;;;;;;;;-144.99;95.53;52497.00;4934313;29;19994;-66
2024/04/04 07:52:42;;;;;;;;;;;;;;;-144.99;95.71;52545.94;4943160;29;19930;-66
2024/04/04 07:55:09;;;;;;;;;;;;;;;-144.99;95.65;52545.94;4940480;29;19933;-65
2024/04/04 07:57:36;;;;;;;;;;;;;;;-144.99;96.00;52529.63;4935823;29;19927;-66
2024/04/04 08:00:03;;;;;;;;;;;;;;;-144.99;96.22;52488.84;4950607;29;19926;-66
2024/04/04 08:02:29;;;;;;;;;;;;;;;-144.99;96.52;52556.13;4943914;29;19927;-67
2024/04/04 08:04:56;;;;;;;;;;;;;;;-144.99;95.94;52521.47;4929297;29;19926;-67
2024/04/04 08:07:21;;;;;;;;;;;;;;;-144.99;95.91;52550.00;4946855;29;19982;-66
2024/04/04 08:09:48;;;;;;;;;;;;;;;-144.99;96.43;52509.25;4942618;29;20013;-66
2024/04/04 08:12:13;;;;;;;;;;;;;;;-144.99;96.45;52558.16;4936345;29;19984;-68
2024/04/04 08:14:44;;;;;;;;;;;;;;;-144.99;96.96;52513.31;4943560;29;19966;-69
2024/04/04 08:17:10;;;;;;;;;;;;;;;-144.99;97.71;52562.25;4949621;29;19942;-68
2024/04/04 08:19:37;;;;;;;;;;;;;;;-144.99;97.97;52554.09;4948874;29;20014;-69
2024/04/04 08:22:02;;;;;;;;;;;;;;;-144.99;99.25;52521.47;4943281;29;19962;-69
2024/04/04 08:24:29;;;;;;;;;;;;;;;-144.99;99.39;52529.63;4945358;29;19969;-68
2024/04/04 08:26:54;;;;;;;;;;;;;;;-144.99;100.00;52568.34;4950286;29;19969;-69
2024/04/04 08:29:23;;;;;;;;;;;;;;;-144.99;100.00;52566.31;4944957;29;19980;-68
2024/04/04 08:31:51;;;;;;;;;;;;;;;-144.99;100.00;52554.09;4945174;29;20345;-68
2024/04/04 08:34:17;;;;;;;;;;;;;;;-144.99;100.00;52566.31;4946990;29;19977;-69
2024/04/04 08:36:43;;;;;;;;;;;;;;;-144.99;100.00;52582.63;4941892;29;20052;-68
2024/04/04 08:39:09;;;;;;;;;;;;;;;-144.99;100.00;52570.38;4939644;29;19934;-68
2024/04/04 08:41:35;;;;;;;;;;;;;;;-144.99;100.00;52541.84;4942416;29;20389;-68
2024/04/04 08:44:03;;;;;;;;;;;;;;;-144.99;100.00;52554.09;4942741;29;19966;-68
2024/04/04 08:46:32;;;;;;;;;;;;;;;-144.99;100.00;52600.97;4944370;29;20341;-68
2024/04/04 08:48:59;;;;;;;;;;;;;;;-144.99;100.00;52598.94;4942834;29;19982;-68
2024/04/04 08:51:26;;;;;;;;;;;;;;;-144.99;100.00;52558.16;4945642;29;20350;-67
2024/04/04 08:53:52;;;;;;;;;;;;;;;-144.99;100.00;52545.94;4935198;29;20017;-67
2024/04/04 08:56:19;;;;;;;;;;;;;;;-144.99;100.00;52521.47;4949136;29;20357;-68
2024/04/04 08:58:44;;;;;;;;;;;;;;;-144.99;100.00;52580.59;4944713;29;20002;-67
2024/04/04 09:01:11;;;;;;;;;;;;;;;-144.99;100.00;52558.16;4945023;29;19934;-68
2024/04/04 09:03:41;;;;;;;;;;;;;;;-144.99;100.00;52533.69;4948791;29;19957;-68
2024/04/04 09:06:09;;;;;;;;;;;;;;;-144.99;100.00;52537.78;4940041;29;19930;-67
2024/04/04 09:08:35;;;;;;;;;;;;;;;-144.99;100.00;52556.13;4946507;29;20411;-67
2024/04/04 09:11:03;;;;;;;;;;;;;;;-144.99;100.00;52541.84;4941704;29;20309;-67
2024/04/04 09:13:29;;;;;;;;;;;;;;;-144.99;100.00;52550.00;4938460;29;19926;-68
2024/04/04 09:16:00;;;;;;;;;;;;;;;-144.99;100.00;52574.47;4943818;29;19927;-67
2024/04/04 09:18:25;;;;;;;;;;;;;;;-144.99;100.00;52570.38;4938818;29;19989;-65
2024/04/04 09:20:52;;;;;;;;;;;;;;;-144.99;100.00;52570.38;4942995;29;19930;-66
2024/04/04 09:23:19;;;;;;;;;;;;;;;-144.99;100.00;52533.69;4944680;29;20358;-67
2024/04/04 09:25:46;;;;;;;;;;;;;;;-144.99;100.00;52537.78;4939931;29;19938;-66
2024/04/04 09:28:14;;;;;;;;;;;;;;;-144.99;100.00;52578.53;4939638;29;20377;-66
2024/04/04 09:30:41;;;;;;;;;;;;;;;-144.99;100.00;52562.25;4937318;29;19931;-67
2024/04/04 09:33:08;;;;;;;;;;;;;;;-144.99;100.00;52523.50;4941128;29;19999;-68
2024/04/04 09:35:35;;;;;;;;;;;;;;;-144.99;100.00;52590.78;4942913;29;20022;-65
2024/04/04 09:38:00;;;;;;;;;;;;;;;-144.99;100.00;52550.00;4939532;29;19931;-67
2024/04/04 09:40:28;;;;;;;;;;;;;;;-144.99;100.00;52519.44;4944858;29;19994;-67
2024/04/04 09:42:54;;;;;;;;;;;;;;;-144.99;100.00;52543.91;4951667;29;19965;-67
2024/04/04 09:45:20;;;;;;;;;;;;;;;-144.99;100.00;52541.84;4948021;29;20437;-67
2024/04/04 09:47:46;;;;;;;;;;;;;;;-144.99;100.00;52562.25;4948794;29;20354;-67
2024/04/04 09:50:15;;;;;;;;;;;;;;;-144.99;100.00;52541.84;4938359;29;20063;-68
2024/04/04 09:52:40;;;;;;;;;;;;;;;-144.99;100.00;52547.97;4933170;29;19926;-67
2024/04/04 09:55:08;;;;;;;;;;;;;;;-144.99;100.00;52541.84;4940391;29;19926;-67
2024/04/04 09:57:35;;;;;;;;;;;;;;;-144.99;100.00;52545.94;4937204;29;20053;-66
2024/04/04 10:00:13;;;;;;;;;;;;;;;-144.99;100.00;52533.69;4935334;29;19927;-66
2024/04/04 10:02:42;;;;;;;;;;;;;;;-144.99;100.00;52578.53;4939723;29;20270;-65
2024/04/04 10:05:14;;;;;;;;;;;;;;;-144.99;100.00;52521.47;4937976;29;19927;-67
2024/04/04 10:07:39;;;;;;;;;;;;;;;-144.99;100.00;52533.69;4941781;29;19961;-67
2024/04/04 10:10:13;;;;;;;;;;;;;;;-144.99;100.00;52578.53;4939380;29;19962;-67
2024/04/04 10:12:45;;;;;;;;;;;;;;;-144.99;100.00;52529.63;4935157;29;19962;-65
2024/04/04 10:15:16;;;;;;;;;;;;;;;-144.99;100.00;52541.84;4942854;29;20190;-67
2024/04/04 10:17:43;;;;;;;;;;;;;;;-144.99;100.00;52582.63;4940300;29;19989;-67
2024/04/04 10:20:11;;;;;;;;;;;;;;;-144.99;100.00;52570.38;4932766;29;19926;-67
2024/04/04 10:22:38;;;;;;;;;;;;;;;-144.99;100.00;52554.09;4975078;23;21652;-65
2024/04/04 10:25:05;;;;;;;;;;;;;;;-144.99;100.00;52537.78;5028555;28;19932;-64
2024/04/04 10:27:31;;;;;;;;;;;;;;;-144.99;100.00;52578.53;5019828;28;20453;-66
2024/04/04 10:29:59;;;;;;;;;;;;;;;-144.99;100.00;52513.31;5028608;28;19925;-66
2024/04/04 10:32:27;;;;;;;;;;;;;;;-144.99;100.00;52578.53;5021133;28;19988;-66
2024/04/04 10:35:00;;;;;;;;;;;;;;;-144.99;100.00;52501.09;5017432;28;19961;-66
2024/04/04 10:37:25;;;;;;;;;;;;;;;-144.99;100.00;52529.63;5015330;28;20060;-66
2024/04/04 10:39:52;;;;;;;;;;;;;;;-144.99;100.00;52562.25;5016193;28;19926;-65
2024/04/04 10:42:17;;;;;;;;;;;;;;;-144.99;100.00;52529.63;5021604;28;19975;-65
2024/04/04 10:44:44;;;;;;;;;;;;;;;-144.99;100.00;52568.34;5013988;28;19957;-65
2024/04/04 10:47:11;;;;;;;;;;;;;;;-144.99;100.00;52541.84;5008063;28;19930;-65
2024/04/04 10:49:38;;;;;;;;;;;;;;;-144.99;100.00;52519.44;5009254;28;19929;-65
2024/04/04 10:52:04;;;;;;;;;;;;;;;-144.99;100.00;52533.69;5009729;28;19926;-65
2024/04/04 10:54:31;;;;;;;;;;;;;;;-144.99;100.00;52541.84;5009223;28;19936;-65
2024/04/04 10:56:57;;;;;;;;;;;;;;;-144.99;100.00;52552.03;5024207;28;19992;-65
2024/04/04 10:59:24;;;;;;;;;;;;;;;-144.99;100.00;52509.25;5010622;28;19964;-65
2024/04/04 11:01:50;;;;;;;;;;;;;;;-144.99;100.00;52525.56;5017510;28;20434;-65
2024/04/04 11:04:19;;;;;;;;;;;;;;;-144.99;100.00;52545.94;5016307;28;19933;-65
2024/04/04 11:06:45;;;;;;;;;;;;;;;-144.99;100.00;52513.31;5012773;28;19926;-65
2024/04/04 11:09:15;;;;;;;;;;;;;;;-144.99;100.00;52574.47;5022238;28;20020;-65
2024/04/04 11:11:41;;;;;;;;;;;;;;;-144.99;100.00;52492.94;5022104;28;19929;-65
2024/04/04 11:14:08;;;;;;;;;;;;;;;-144.99;100.00;52537.78;5017018;28;19937;-63
2024/04/04 11:16:34;;;;;;;;;;;;;;;-144.99;100.00;52529.63;5022941;28;19952;-63
2024/04/04 11:19:00;;;;;;;;;;;;;;;-144.99;100.00;52513.31;5023683;28;20526;-64
2024/04/04 11:21:27;;;;;;;;;;;;;;;-144.99;100.00;52537.78;5018928;28;19960;-64
2024/04/04 11:23:54;;;;;;;;;;;;;;;-144.99;100.00;52517.41;5020428;28;19929;-64
2024/04/04 11:26:20;;;;;;;;;;;;;;;-144.99;100.00;52509.25;5021525;28;19951;-64
2024/04/04 11:28:47;;;;;;;;;;;;;;;-144.99;100.00;52545.94;5025221;28;19932;-66
2024/04/04 11:31:12;;;;;;;;;;;;;;;-144.99;100.00;52554.09;5024330;28;19933;-63
2024/04/04 11:33:39;;;;;;;;;;;;;;;-144.99;100.00;52554.09;5028173;28;20349;-63
2024/04/04 11:36:05;;;;;;;;;;;;;;;-144.99;100.00;52505.16;5020374;28;19937;-63
2024/04/04 11:38:33;;;;;;;;;;;;;;;-144.99;100.00;52488.84;5023108;28;20319;-64
2024/04/04 11:40:58;;;;;;;;;;;;;;;-144.99;100.00;52541.84;5027334;28;19979;-64
2024/04/04 11:43:25;;;;;;;;;;;;;;;-144.99;100.00;52537.78;5017791;28;19996;-65
2024/04/04 11:45:51;;;;;;;;;;;;;;;-144.99;100.00;52531.66;5014769;28;19930;-64
2024/04/04 11:48:17;;;;;;;;;;;;;;;-144.99;100.00;52547.97;5018491;28;20401;-64
2024/04/04 11:50:43;;;;;;;;;;;;;;;-144.99;100.00;52590.78;5019609;28;20304;-64
2024/04/04 11:53:11;;;;;;;;;;;;;;;-144.99;100.00;52513.31;5015480;28;19984;-64
2024/04/04 11:55:38;;;;;;;;;;;;;;;-144.99;100.00;52505.16;5023365;28;19933;-65
2024/04/04 11:58:05;;;;;;;;;;;;;;;-144.99;100.00;52525.56;5019998;28;19929;-64
2024/04/04 12:00:31;;;;;;;;;;;;;;;-144.99;100.00;52543.91;5020862;28;19975;-64
2024/04/04 12:02:57;;;;;;;;;;;;;;;-144.99;100.00;52529.63;5012211;28;20331;-65
2024/04/04 12:05:23;;;;;;;;;;;;;;;-144.99;100.00;52529.63;5011830;28;20055;-64
2024/04/04 12:07:50;;;;;;;;;;;;;;;-144.99;100.00;52517.41;5012289;28;20040;-64
2024/04/04 12:10:17;;;;;;;;;;;;;;;-144.99;100.00;52533.69;5027024;28;19944;-64
2024/04/04 12:12:45;;;;;;;;;;;;;;;-144.99;100.00;52476.63;5015920;28;19979;-63
2024/04/04 12:15:10;;;;;;;;;;;;;;;-144.99;100.00;52497.00;5016467;28;19937;-64
2024/04/04 12:17:38;;;;;;;;;;;;;;;-144.99;100.00;52533.69;5013319;28;19933;-65